sensor_id;sensor_type;location;lat;lon;timestamp;temperature;humidity
15107;DHT22;7654;45.308;-75.096;2023-06-19T00:00:31;18.80;99.90
15107;DHT22;7654;45.308;-75.096;2023-06-19T00:03:01;18.70;99.90
15107;DHT22;7654;45.308;-75.096;2023-06-19T00:05:32;18.50;99.90
15107;DHT22;7654;45.308;-75.096;2023-06-19T00:08:03;18.40;99.90
15107;DHT22;7654;45.308;-75.096;2023-06-19T00:10:35;18.30;99.90
15107;DHT22;7654;45.308;-75.096;2023-06-19T00:13:07;18.20;99.90
15107;DHT22;7654;45.308;-75.096;2023-06-19T00:15:37;18.10;99.90
15107;DHT22;7654;45.308;-75.096;2023-06-19T00:18:07;18.00;99.90
15107;DHT22;7654;45.308;-75.096;2023-06-19T00:20:40;18.00;99.90
15107;DHT22;7654;45.308;-75.096;2023-06-19T00:23:15;18.00;99.90
15107;DHT22;7654;45.308;-75.096;2023-06-19T00:25:45;17.90;99.90
15107;DHT22;7654;45.308;-75.096;2023-06-19T00:28:19;17.90;99.90
15107;DHT22;7654;45.308;-75.096;2023-06-19T00:30:50;17.90;99.90
15107;DHT22;7654;45.308;-75.096;2023-06-19T00:33:23;17.90;99.90
15107;DHT22;7654;45.308;-75.096;2023-06-19T00:35:53;17.80;99.90
15107;DHT22;7654;45.308;-75.096;2023-06-19T00:38:25;17.80;99.90
15107;DHT22;7654;45.308;-75.096;2023-06-19T00:40:57;17.80;99.90
15107;DHT22;7654;45.308;-75.096;2023-06-19T00:43:31;17.70;99.90
15107;DHT22;7654;45.308;-75.096;2023-06-19T00:46:03;17.70;99.90
15107;DHT22;7654;45.308;-75.096;2023-06-19T00:48:34;17.60;99.90
15107;DHT22;7654;45.308;-75.096;2023-06-19T00:51:05;17.60;99.90
15107;DHT22;7654;45.308;-75.096;2023-06-19T00:53:37;17.50;99.90
15107;DHT22;7654;45.308;-75.096;2023-06-19T00:56:07;17.40;99.90
15107;DHT22;7654;45.308;-75.096;2023-06-19T00:58:39;17.40;99.90
15107;DHT22;7654;45.308;-75.096;2023-06-19T01:01:10;17.40;99.90
15107;DHT22;7654;45.308;-75.096;2023-06-19T01:03:40;17.30;99.90
15107;DHT22;7654;45.308;-75.096;2023-06-19T01:06:15;17.30;99.90
15107;DHT22;7654;45.308;-75.096;2023-06-19T01:08:55;17.30;99.90
15107;DHT22;7654;45.308;-75.096;2023-06-19T01:11:30;17.30;99.90
15107;DHT22;7654;45.308;-75.096;2023-06-19T01:14:08;17.30;99.90
15107;DHT22;7654;45.308;-75.096;2023-06-19T01:16:39;17.30;99.90
15107;DHT22;7654;45.308;-75.096;2023-06-19T01:19:11;17.30;99.90
15107;DHT22;7654;45.308;-75.096;2023-06-19T01:21:45;17.30;99.90
15107;DHT22;7654;45.308;-75.096;2023-06-19T01:24:19;17.40;99.90
15107;DHT22;7654;45.308;-75.096;2023-06-19T01:26:49;17.40;99.90
15107;DHT22;7654;45.308;-75.096;2023-06-19T01:29:20;17.40;99.90
15107;DHT22;7654;45.308;-75.096;2023-06-19T01:31:56;17.40;99.90
15107;DHT22;7654;45.308;-75.096;2023-06-19T01:34:30;17.40;99.90
15107;DHT22;7654;45.308;-75.096;2023-06-19T01:37:08;17.40;99.90
15107;DHT22;7654;45.308;-75.096;2023-06-19T01:39:43;17.40;99.90
15107;DHT22;7654;45.308;-75.096;2023-06-19T01:42:18;17.30;99.90
15107;DHT22;7654;45.308;-75.096;2023-06-19T01:44:49;17.30;99.90
15107;DHT22;7654;45.308;-75.096;2023-06-19T01:47:20;17.30;99.90
15107;DHT22;7654;45.308;-75.096;2023-06-19T01:49:50;17.30;99.90
15107;DHT22;7654;45.308;-75.096;2023-06-19T01:52:21;17.20;99.90
15107;DHT22;7654;45.308;-75.096;2023-06-19T01:54:53;17.20;99.90
15107;DHT22;7654;45.308;-75.096;2023-06-19T01:57:23;17.20;99.90
15107;DHT22;7654;45.308;-75.096;2023-06-19T01:59:53;17.20;99.90
15107;DHT22;7654;45.308;-75.096;2023-06-19T02:02:28;17.20;99.90
15107;DHT22;7654;45.308;-75.096;2023-06-19T02:04:59;17.20;99.90
15107;DHT22;7654;45.308;-75.096;2023-06-19T02:07:29;17.20;99.90
15107;DHT22;7654;45.308;-75.096;2023-06-19T02:10:01;17.20;99.90
15107;DHT22;7654;45.308;-75.096;2023-06-19T02:12:35;17.20;99.90
15107;DHT22;7654;45.308;-75.096;2023-06-19T02:15:07;17.20;99.90
15107;DHT22;7654;45.308;-75.096;2023-06-19T02:17:38;17.20;99.90
15107;DHT22;7654;45.308;-75.096;2023-06-19T02:20:12;17.20;99.90
15107;DHT22;7654;45.308;-75.096;2023-06-19T02:22:42;17.20;99.90
15107;DHT22;7654;45.308;-75.096;2023-06-19T02:25:14;17.20;99.90
15107;DHT22;7654;45.308;-75.096;2023-06-19T02:27:45;17.30;99.90
15107;DHT22;7654;45.308;-75.096;2023-06-19T02:30:15;17.30;99.90
15107;DHT22;7654;45.308;-75.096;2023-06-19T02:32:46;17.30;99.90
15107;DHT22;7654;45.308;-75.096;2023-06-19T02:35:16;17.30;99.90
15107;DHT22;7654;45.308;-75.096;2023-06-19T02:37:46;17.20;99.90
15107;DHT22;7654;45.308;-75.096;2023-06-19T02:40:19;17.30;99.90
15107;DHT22;7654;45.308;-75.096;2023-06-19T02:42:49;17.20;99.90
15107;DHT22;7654;45.308;-75.096;2023-06-19T02:45:20;17.20;99.90
15107;DHT22;7654;45.308;-75.096;2023-06-19T02:47:50;17.20;99.90
15107;DHT22;7654;45.308;-75.096;2023-06-19T02:50:21;17.10;99.90
15107;DHT22;7654;45.308;-75.096;2023-06-19T02:52:52;17.10;99.90
15107;DHT22;7654;45.308;-75.096;2023-06-19T02:55:24;17.10;99.90
15107;DHT22;7654;45.308;-75.096;2023-06-19T02:57:54;17.00;99.90
15107;DHT22;7654;45.308;-75.096;2023-06-19T03:00:25;17.00;99.90
15107;DHT22;7654;45.308;-75.096;2023-06-19T03:02:56;17.00;99.90
15107;DHT22;7654;45.308;-75.096;2023-06-19T03:05:27;17.00;99.90
15107;DHT22;7654;45.308;-75.096;2023-06-19T03:07:58;17.00;99.90
15107;DHT22;7654;45.308;-75.096;2023-06-19T03:10:30;17.00;99.90
15107;DHT22;7654;45.308;-75.096;2023-06-19T03:13:02;16.90;99.90
15107;DHT22;7654;45.308;-75.096;2023-06-19T03:15:32;16.90;99.90
15107;DHT22;7654;45.308;-75.096;2023-06-19T03:18:03;16.90;99.90
15107;DHT22;7654;45.308;-75.096;2023-06-19T03:20:35;16.90;99.90
15107;DHT22;7654;45.308;-75.096;2023-06-19T03:23:06;16.90;99.90
15107;DHT22;7654;45.308;-75.096;2023-06-19T03:25:38;16.80;99.90
15107;DHT22;7654;45.308;-75.096;2023-06-19T03:28:10;16.80;99.90
15107;DHT22;7654;45.308;-75.096;2023-06-19T03:30:41;16.80;99.90
15107;DHT22;7654;45.308;-75.096;2023-06-19T03:33:11;16.80;99.90
15107;DHT22;7654;45.308;-75.096;2023-06-19T03:35:42;16.70;99.90
15107;DHT22;7654;45.308;-75.096;2023-06-19T03:38:12;16.70;99.90
15107;DHT22;7654;45.308;-75.096;2023-06-19T03:40:44;16.70;99.90
15107;DHT22;7654;45.308;-75.096;2023-06-19T03:43:15;16.70;99.90
15107;DHT22;7654;45.308;-75.096;2023-06-19T03:45:45;16.60;99.90
15107;DHT22;7654;45.308;-75.096;2023-06-19T03:48:16;16.60;99.90
15107;DHT22;7654;45.308;-75.096;2023-06-19T03:50:46;16.60;99.90
15107;DHT22;7654;45.308;-75.096;2023-06-19T03:53:16;16.60;99.90
15107;DHT22;7654;45.308;-75.096;2023-06-19T03:55:48;16.60;99.90
15107;DHT22;7654;45.308;-75.096;2023-06-19T03:58:22;16.50;99.90
15107;DHT22;7654;45.308;-75.096;2023-06-19T04:00:52;16.50;99.90
15107;DHT22;7654;45.308;-75.096;2023-06-19T04:03:22;16.50;99.90
15107;DHT22;7654;45.308;-75.096;2023-06-19T04:05:53;16.40;99.90
15107;DHT22;7654;45.308;-75.096;2023-06-19T04:08:23;16.40;99.90
15107;DHT22;7654;45.308;-75.096;2023-06-19T04:10:56;16.40;99.90
15107;DHT22;7654;45.308;-75.096;2023-06-19T04:13:26;16.40;99.90
15107;DHT22;7654;45.308;-75.096;2023-06-19T04:15:56;16.30;99.90
15107;DHT22;7654;45.308;-75.096;2023-06-19T04:18:27;16.30;99.90
15107;DHT22;7654;45.308;-75.096;2023-06-19T04:20:57;16.30;99.90
15107;DHT22;7654;45.308;-75.096;2023-06-19T04:23:27;16.30;99.90
15107;DHT22;7654;45.308;-75.096;2023-06-19T04:25:59;16.30;99.90
15107;DHT22;7654;45.308;-75.096;2023-06-19T04:28:30;16.30;99.90
15107;DHT22;7654;45.308;-75.096;2023-06-19T04:31:00;16.30;99.90
15107;DHT22;7654;45.308;-75.096;2023-06-19T04:33:30;16.30;99.90
15107;DHT22;7654;45.308;-75.096;2023-06-19T04:36:01;16.30;99.90
15107;DHT22;7654;45.308;-75.096;2023-06-19T04:38:31;16.20;99.90
15107;DHT22;7654;45.308;-75.096;2023-06-19T04:41:03;16.20;99.90
15107;DHT22;7654;45.308;-75.096;2023-06-19T04:43:33;16.20;99.90
15107;DHT22;7654;45.308;-75.096;2023-06-19T04:46:03;16.20;99.90
15107;DHT22;7654;45.308;-75.096;2023-06-19T04:48:34;16.10;99.90
15107;DHT22;7654;45.308;-75.096;2023-06-19T04:51:05;16.10;99.90
15107;DHT22;7654;45.308;-75.096;2023-06-19T04:53:35;16.10;99.90
15107;DHT22;7654;45.308;-75.096;2023-06-19T04:56:07;16.10;99.90
15107;DHT22;7654;45.308;-75.096;2023-06-19T04:58:37;16.10;99.90
15107;DHT22;7654;45.308;-75.096;2023-06-19T05:01:14;16.00;99.90
15107;DHT22;7654;45.308;-75.096;2023-06-19T05:03:45;16.00;99.90
15107;DHT22;7654;45.308;-75.096;2023-06-19T05:06:15;16.00;99.90
15107;DHT22;7654;45.308;-75.096;2023-06-19T05:08:47;16.00;99.90
15107;DHT22;7654;45.308;-75.096;2023-06-19T05:11:19;16.00;99.90
15107;DHT22;7654;45.308;-75.096;2023-06-19T05:13:50;16.00;99.90
15107;DHT22;7654;45.308;-75.096;2023-06-19T05:16:20;16.00;99.90
15107;DHT22;7654;45.308;-75.096;2023-06-19T05:18:51;15.90;99.90
15107;DHT22;7654;45.308;-75.096;2023-06-19T05:21:21;15.90;99.90
15107;DHT22;7654;45.308;-75.096;2023-06-19T05:23:52;15.90;99.90
15107;DHT22;7654;45.308;-75.096;2023-06-19T05:26:23;15.90;99.90
15107;DHT22;7654;45.308;-75.096;2023-06-19T05:28:54;15.90;99.90
15107;DHT22;7654;45.308;-75.096;2023-06-19T05:31:25;15.90;99.90
15107;DHT22;7654;45.308;-75.096;2023-06-19T05:33:55;15.90;99.90
15107;DHT22;7654;45.308;-75.096;2023-06-19T05:36:26;15.80;99.90
15107;DHT22;7654;45.308;-75.096;2023-06-19T05:38:57;15.90;99.90
15107;DHT22;7654;45.308;-75.096;2023-06-19T05:41:29;15.80;99.90
15107;DHT22;7654;45.308;-75.096;2023-06-19T05:44:00;15.80;99.90
15107;DHT22;7654;45.308;-75.096;2023-06-19T05:46:30;15.80;99.90
15107;DHT22;7654;45.308;-75.096;2023-06-19T05:49:00;15.80;99.90
15107;DHT22;7654;45.308;-75.096;2023-06-19T05:51:31;15.80;99.90
15107;DHT22;7654;45.308;-75.096;2023-06-19T05:54:01;15.80;99.90
15107;DHT22;7654;45.308;-75.096;2023-06-19T05:56:34;15.70;99.90
15107;DHT22;7654;45.308;-75.096;2023-06-19T05:59:04;15.70;99.90
15107;DHT22;7654;45.308;-75.096;2023-06-19T06:01:34;15.70;99.90
15107;DHT22;7654;45.308;-75.096;2023-06-19T06:04:05;15.70;99.90
15107;DHT22;7654;45.308;-75.096;2023-06-19T06:06:35;15.60;99.90
15107;DHT22;7654;45.308;-75.096;2023-06-19T06:09:06;15.60;99.90
15107;DHT22;7654;45.308;-75.096;2023-06-19T06:11:40;15.60;99.90
15107;DHT22;7654;45.308;-75.096;2023-06-19T06:14:11;15.60;99.90
15107;DHT22;7654;45.308;-75.096;2023-06-19T06:16:41;15.60;99.90
15107;DHT22;7654;45.308;-75.096;2023-06-19T06:19:12;15.60;99.90
15107;DHT22;7654;45.308;-75.096;2023-06-19T06:21:42;15.50;99.90
15107;DHT22;7654;45.308;-75.096;2023-06-19T06:24:12;15.50;99.90
15107;DHT22;7654;45.308;-75.096;2023-06-19T06:26:44;15.50;99.90
15107;DHT22;7654;45.308;-75.096;2023-06-19T06:29:14;15.50;99.90
15107;DHT22;7654;45.308;-75.096;2023-06-19T06:31:46;15.50;99.90
15107;DHT22;7654;45.308;-75.096;2023-06-19T06:34:17;15.50;99.90
15107;DHT22;7654;45.308;-75.096;2023-06-19T06:36:47;15.40;99.90
15107;DHT22;7654;45.308;-75.096;2023-06-19T06:39:32;15.40;99.90
15107;DHT22;7654;45.308;-75.096;2023-06-19T06:42:05;15.40;99.90
15107;DHT22;7654;45.308;-75.096;2023-06-19T06:44:35;15.40;99.90
15107;DHT22;7654;45.308;-75.096;2023-06-19T06:47:06;15.30;99.90
15107;DHT22;7654;45.308;-75.096;2023-06-19T06:49:36;15.30;99.90
15107;DHT22;7654;45.308;-75.096;2023-06-19T06:52:07;15.20;99.90
15107;DHT22;7654;45.308;-75.096;2023-06-19T06:54:38;15.20;99.90
15107;DHT22;7654;45.308;-75.096;2023-06-19T06:57:09;15.20;99.90
15107;DHT22;7654;45.308;-75.096;2023-06-19T06:59:40;15.20;99.90
15107;DHT22;7654;45.308;-75.096;2023-06-19T07:02:10;15.20;99.90
15107;DHT22;7654;45.308;-75.096;2023-06-19T07:04:41;15.20;99.90
15107;DHT22;7654;45.308;-75.096;2023-06-19T07:07:11;15.20;99.90
15107;DHT22;7654;45.308;-75.096;2023-06-19T07:09:41;15.30;99.90
15107;DHT22;7654;45.308;-75.096;2023-06-19T07:12:13;15.20;99.90
15107;DHT22;7654;45.308;-75.096;2023-06-19T07:14:43;15.30;99.90
15107;DHT22;7654;45.308;-75.096;2023-06-19T07:17:14;15.30;99.90
15107;DHT22;7654;45.308;-75.096;2023-06-19T07:19:47;15.20;99.90
15107;DHT22;7654;45.308;-75.096;2023-06-19T07:22:17;15.20;99.90
15107;DHT22;7654;45.308;-75.096;2023-06-19T07:24:48;15.30;99.90
15107;DHT22;7654;45.308;-75.096;2023-06-19T07:27:20;15.20;99.90
15107;DHT22;7654;45.308;-75.096;2023-06-19T07:29:50;15.20;99.90
15107;DHT22;7654;45.308;-75.096;2023-06-19T07:32:20;15.20;99.90
15107;DHT22;7654;45.308;-75.096;2023-06-19T07:34:51;15.20;99.90
15107;DHT22;7654;45.308;-75.096;2023-06-19T07:37:21;15.20;99.90
15107;DHT22;7654;45.308;-75.096;2023-06-19T07:39:52;15.10;99.90
15107;DHT22;7654;45.308;-75.096;2023-06-19T07:42:24;15.10;99.90
15107;DHT22;7654;45.308;-75.096;2023-06-19T07:44:54;15.10;99.90
15107;DHT22;7654;45.308;-75.096;2023-06-19T07:47:26;15.00;99.90
15107;DHT22;7654;45.308;-75.096;2023-06-19T07:49:56;15.10;99.90
15107;DHT22;7654;45.308;-75.096;2023-06-19T07:52:27;15.00;99.90
15107;DHT22;7654;45.308;-75.096;2023-06-19T07:54:58;15.00;99.90
15107;DHT22;7654;45.308;-75.096;2023-06-19T07:57:30;15.00;99.90
15107;DHT22;7654;45.308;-75.096;2023-06-19T08:00:00;15.00;99.90
15107;DHT22;7654;45.308;-75.096;2023-06-19T08:02:35;15.00;99.90
15107;DHT22;7654;45.308;-75.096;2023-06-19T08:05:07;14.90;99.90
15107;DHT22;7654;45.308;-75.096;2023-06-19T08:07:39;14.90;99.90
15107;DHT22;7654;45.308;-75.096;2023-06-19T08:10:10;15.00;99.90
15107;DHT22;7654;45.308;-75.096;2023-06-19T08:12:44;14.90;99.90
15107;DHT22;7654;45.308;-75.096;2023-06-19T08:15:14;15.00;99.90
15107;DHT22;7654;45.308;-75.096;2023-06-19T08:17:44;14.90;99.90
15107;DHT22;7654;45.308;-75.096;2023-06-19T08:20:15;14.90;99.90
15107;DHT22;7654;45.308;-75.096;2023-06-19T08:22:45;14.90;99.90
15107;DHT22;7654;45.308;-75.096;2023-06-19T08:25:15;14.90;99.90
15107;DHT22;7654;45.308;-75.096;2023-06-19T08:27:47;14.90;99.90
15107;DHT22;7654;45.308;-75.096;2023-06-19T08:30:18;14.80;99.90
15107;DHT22;7654;45.308;-75.096;2023-06-19T08:32:49;14.80;99.90
15107;DHT22;7654;45.308;-75.096;2023-06-19T08:35:20;14.80;99.90
15107;DHT22;7654;45.308;-75.096;2023-06-19T08:37:50;14.70;99.90
15107;DHT22;7654;45.308;-75.096;2023-06-19T08:40:20;14.70;99.90
15107;DHT22;7654;45.308;-75.096;2023-06-19T08:42:53;14.70;99.90
15107;DHT22;7654;45.308;-75.096;2023-06-19T08:45:26;14.60;99.90
15107;DHT22;7654;45.308;-75.096;2023-06-19T08:48:00;14.70;99.90
15107;DHT22;7654;45.308;-75.096;2023-06-19T08:50:32;14.60;99.90
15107;DHT22;7654;45.308;-75.096;2023-06-19T08:53:02;14.60;99.90
15107;DHT22;7654;45.308;-75.096;2023-06-19T08:55:33;14.60;99.90
15107;DHT22;7654;45.308;-75.096;2023-06-19T08:58:05;14.60;99.90
15107;DHT22;7654;45.308;-75.096;2023-06-19T09:00:35;14.60;99.90
15107;DHT22;7654;45.308;-75.096;2023-06-19T09:03:05;14.60;99.90
15107;DHT22;7654;45.308;-75.096;2023-06-19T09:05:42;14.60;99.90
15107;DHT22;7654;45.308;-75.096;2023-06-19T09:08:19;14.60;99.90
15107;DHT22;7654;45.308;-75.096;2023-06-19T09:10:57;14.50;99.90
15107;DHT22;7654;45.308;-75.096;2023-06-19T09:13:31;14.50;99.90
15107;DHT22;7654;45.308;-75.096;2023-06-19T09:16:02;14.50;99.90
15107;DHT22;7654;45.308;-75.096;2023-06-19T09:18:43;14.50;99.90
15107;DHT22;7654;45.308;-75.096;2023-06-19T09:21:17;14.50;99.90
15107;DHT22;7654;45.308;-75.096;2023-06-19T09:23:50;14.40;99.90
15107;DHT22;7654;45.308;-75.096;2023-06-19T09:26:21;14.40;99.90
15107;DHT22;7654;45.308;-75.096;2023-06-19T09:28:53;14.40;99.90
15107;DHT22;7654;45.308;-75.096;2023-06-19T09:31:32;14.40;99.90
15107;DHT22;7654;45.308;-75.096;2023-06-19T09:34:03;14.40;99.90
15107;DHT22;7654;45.308;-75.096;2023-06-19T09:36:35;14.40;99.90
15107;DHT22;7654;45.308;-75.096;2023-06-19T09:39:06;14.40;99.90
15107;DHT22;7654;45.308;-75.096;2023-06-19T09:41:39;14.30;99.90
15107;DHT22;7654;45.308;-75.096;2023-06-19T09:44:11;14.40;99.90
15107;DHT22;7654;45.308;-75.096;2023-06-19T09:46:45;14.40;99.90
15107;DHT22;7654;45.308;-75.096;2023-06-19T09:49:19;14.30;99.90
15107;DHT22;7654;45.308;-75.096;2023-06-19T09:51:51;14.30;99.90
15107;DHT22;7654;45.308;-75.096;2023-06-19T09:54:23;14.30;99.90
15107;DHT22;7654;45.308;-75.096;2023-06-19T09:56:56;14.30;99.90
15107;DHT22;7654;45.308;-75.096;2023-06-19T09:59:30;14.30;99.90
15107;DHT22;7654;45.308;-75.096;2023-06-19T10:02:01;14.30;99.90
15107;DHT22;7654;45.308;-75.096;2023-06-19T10:04:42;14.20;99.90
15107;DHT22;7654;45.308;-75.096;2023-06-19T10:07:18;14.20;99.90
15107;DHT22;7654;45.308;-75.096;2023-06-19T10:09:59;14.20;99.90
15107;DHT22;7654;45.308;-75.096;2023-06-19T10:12:40;14.20;99.90
15107;DHT22;7654;45.308;-75.096;2023-06-19T10:15:15;14.20;99.90
15107;DHT22;7654;45.308;-75.096;2023-06-19T10:17:48;14.20;99.90
15107;DHT22;7654;45.308;-75.096;2023-06-19T10:20:26;14.20;99.90
15107;DHT22;7654;45.308;-75.096;2023-06-19T10:23:03;14.20;99.90
15107;DHT22;7654;45.308;-75.096;2023-06-19T10:25:34;14.20;99.90
15107;DHT22;7654;45.308;-75.096;2023-06-19T10:28:17;14.20;99.90
15107;DHT22;7654;45.308;-75.096;2023-06-19T10:30:54;14.20;99.90
15107;DHT22;7654;45.308;-75.096;2023-06-19T10:33:26;14.20;99.90
15107;DHT22;7654;45.308;-75.096;2023-06-19T10:35:57;14.10;99.90
15107;DHT22;7654;45.308;-75.096;2023-06-19T10:38:28;14.10;99.90
15107;DHT22;7654;45.308;-75.096;2023-06-19T10:40:58;14.10;99.90
15107;DHT22;7654;45.308;-75.096;2023-06-19T10:43:29;14.10;99.90
15107;DHT22;7654;45.308;-75.096;2023-06-19T10:46:03;14.10;99.90
15107;DHT22;7654;45.308;-75.096;2023-06-19T10:48:33;14.10;99.90
15107;DHT22;7654;45.308;-75.096;2023-06-19T10:51:04;14.00;99.90
15107;DHT22;7654;45.308;-75.096;2023-06-19T10:53:35;14.00;99.90
15107;DHT22;7654;45.308;-75.096;2023-06-19T10:56:06;13.90;99.90
15107;DHT22;7654;45.308;-75.096;2023-06-19T10:58:36;13.80;99.90
15107;DHT22;7654;45.308;-75.096;2023-06-19T11:01:08;13.70;99.90
15107;DHT22;7654;45.308;-75.096;2023-06-19T11:03:39;13.60;99.90
15107;DHT22;7654;45.308;-75.096;2023-06-19T11:06:09;13.60;99.90
15107;DHT22;7654;45.308;-75.096;2023-06-19T11:08:40;13.60;99.90
15107;DHT22;7654;45.308;-75.096;2023-06-19T11:11:10;13.60;99.90
15107;DHT22;7654;45.308;-75.096;2023-06-19T11:13:40;13.50;99.90
15107;DHT22;7654;45.308;-75.096;2023-06-19T11:16:14;13.50;99.90
15107;DHT22;7654;45.308;-75.096;2023-06-19T11:18:45;13.60;99.90
15107;DHT22;7654;45.308;-75.096;2023-06-19T11:21:15;13.50;99.90
15107;DHT22;7654;45.308;-75.096;2023-06-19T11:23:48;13.60;99.90
15107;DHT22;7654;45.308;-75.096;2023-06-19T11:26:18;13.60;99.90
15107;DHT22;7654;45.308;-75.096;2023-06-19T11:28:48;13.50;99.90
15107;DHT22;7654;45.308;-75.096;2023-06-19T11:31:25;13.50;99.90
15107;DHT22;7654;45.308;-75.096;2023-06-19T11:33:57;13.50;99.90
15107;DHT22;7654;45.308;-75.096;2023-06-19T11:36:28;13.50;99.90
15107;DHT22;7654;45.308;-75.096;2023-06-19T11:38:58;13.50;99.90
15107;DHT22;7654;45.308;-75.096;2023-06-19T11:41:29;13.50;99.90
15107;DHT22;7654;45.308;-75.096;2023-06-19T11:43:59;13.50;99.90
15107;DHT22;7654;45.308;-75.096;2023-06-19T11:46:32;13.50;99.90
15107;DHT22;7654;45.308;-75.096;2023-06-19T11:49:13;13.50;99.90
15107;DHT22;7654;45.308;-75.096;2023-06-19T11:51:45;13.50;99.90
15107;DHT22;7654;45.308;-75.096;2023-06-19T11:54:15;13.50;99.90
15107;DHT22;7654;45.308;-75.096;2023-06-19T11:56:46;13.50;99.90
15107;DHT22;7654;45.308;-75.096;2023-06-19T11:59:17;13.50;99.90
15107;DHT22;7654;45.308;-75.096;2023-06-19T12:01:49;13.50;99.90
15107;DHT22;7654;45.308;-75.096;2023-06-19T12:04:20;13.50;99.90
15107;DHT22;7654;45.308;-75.096;2023-06-19T12:06:51;13.50;99.90
15107;DHT22;7654;45.308;-75.096;2023-06-19T12:09:22;13.60;99.90
15107;DHT22;7654;45.308;-75.096;2023-06-19T12:11:52;13.70;99.90
15107;DHT22;7654;45.308;-75.096;2023-06-19T12:14:23;13.80;99.90
15107;DHT22;7654;45.308;-75.096;2023-06-19T12:16:55;13.90;99.90
15107;DHT22;7654;45.308;-75.096;2023-06-19T12:19:26;14.00;99.90
15107;DHT22;7654;45.308;-75.096;2023-06-19T12:21:57;14.00;99.90
15107;DHT22;7654;45.308;-75.096;2023-06-19T12:24:28;14.10;99.90
15107;DHT22;7654;45.308;-75.096;2023-06-19T12:26:58;14.20;99.90
15107;DHT22;7654;45.308;-75.096;2023-06-19T12:29:28;14.20;99.90
15107;DHT22;7654;45.308;-75.096;2023-06-19T12:32:04;14.30;99.90
15107;DHT22;7654;45.308;-75.096;2023-06-19T12:34:34;14.40;99.90
15107;DHT22;7654;45.308;-75.096;2023-06-19T12:37:05;14.50;99.90
15107;DHT22;7654;45.308;-75.096;2023-06-19T12:39:35;14.60;99.90
15107;DHT22;7654;45.308;-75.096;2023-06-19T12:42:06;14.70;99.90
15107;DHT22;7654;45.308;-75.096;2023-06-19T12:44:36;14.80;99.90
15107;DHT22;7654;45.308;-75.096;2023-06-19T12:47:08;14.80;99.90
15107;DHT22;7654;45.308;-75.096;2023-06-19T12:49:39;14.80;99.90
15107;DHT22;7654;45.308;-75.096;2023-06-19T12:52:09;14.80;99.90
15107;DHT22;7654;45.308;-75.096;2023-06-19T12:54:39;14.90;99.90
15107;DHT22;7654;45.308;-75.096;2023-06-19T12:57:10;15.10;99.90
15107;DHT22;7654;45.308;-75.096;2023-06-19T12:59:41;15.20;99.90
15107;DHT22;7654;45.308;-75.096;2023-06-19T13:02:12;15.50;99.90
15107;DHT22;7654;45.308;-75.096;2023-06-19T13:04:43;15.70;99.90
15107;DHT22;7654;45.308;-75.096;2023-06-19T13:07:13;15.80;99.90
15107;DHT22;7654;45.308;-75.096;2023-06-19T13:09:43;15.80;99.90
15107;DHT22;7654;45.308;-75.096;2023-06-19T13:12:14;15.90;99.90
15107;DHT22;7654;45.308;-75.096;2023-06-19T13:14:44;16.10;99.90
15107;DHT22;7654;45.308;-75.096;2023-06-19T13:17:16;16.10;99.90
15107;DHT22;7654;45.308;-75.096;2023-06-19T13:19:46;16.10;99.90
15107;DHT22;7654;45.308;-75.096;2023-06-19T13:22:17;16.10;99.90
15107;DHT22;7654;45.308;-75.096;2023-06-19T13:24:51;16.30;99.90
15107;DHT22;7654;45.308;-75.096;2023-06-19T13:27:21;16.50;99.90
15107;DHT22;7654;45.308;-75.096;2023-06-19T13:29:53;16.50;99.90
15107;DHT22;7654;45.308;-75.096;2023-06-19T13:32:26;16.50;99.90
15107;DHT22;7654;45.308;-75.096;2023-06-19T13:34:56;16.50;99.90
15107;DHT22;7654;45.308;-75.096;2023-06-19T13:37:27;16.60;99.90
15107;DHT22;7654;45.308;-75.096;2023-06-19T13:39:58;16.70;99.90
15107;DHT22;7654;45.308;-75.096;2023-06-19T13:42:32;16.80;99.90
15107;DHT22;7654;45.308;-75.096;2023-06-19T13:45:04;16.90;99.90
15107;DHT22;7654;45.308;-75.096;2023-06-19T13:47:36;17.20;99.90
15107;DHT22;7654;45.308;-75.096;2023-06-19T13:50:08;17.50;99.90
15107;DHT22;7654;45.308;-75.096;2023-06-19T13:52:41;17.70;99.90
15107;DHT22;7654;45.308;-75.096;2023-06-19T13:55:11;17.80;99.90
15107;DHT22;7654;45.308;-75.096;2023-06-19T13:57:42;17.80;99.90
15107;DHT22;7654;45.308;-75.096;2023-06-19T14:00:14;18.00;99.90
15107;DHT22;7654;45.308;-75.096;2023-06-19T14:02:46;18.10;99.90
15107;DHT22;7654;45.308;-75.096;2023-06-19T14:05:20;18.20;99.90
15107;DHT22;7654;45.308;-75.096;2023-06-19T14:07:51;18.40;99.90
15107;DHT22;7654;45.308;-75.096;2023-06-19T14:10:22;18.70;99.90
15107;DHT22;7654;45.308;-75.096;2023-06-19T14:12:53;18.50;99.90
15107;DHT22;7654;45.308;-75.096;2023-06-19T14:16:05;18.40;99.90
15107;DHT22;7654;45.308;-75.096;2023-06-19T14:18:36;18.40;99.90
15107;DHT22;7654;45.308;-75.096;2023-06-19T14:21:06;18.30;99.90
15107;DHT22;7654;45.308;-75.096;2023-06-19T14:23:37;18.40;99.90
15107;DHT22;7654;45.308;-75.096;2023-06-19T14:26:12;18.60;99.90
15107;DHT22;7654;45.308;-75.096;2023-06-19T14:28:42;18.90;99.90
15107;DHT22;7654;45.308;-75.096;2023-06-19T14:31:14;19.30;99.90
15107;DHT22;7654;45.308;-75.096;2023-06-19T14:33:44;19.40;99.90
15107;DHT22;7654;45.308;-75.096;2023-06-19T14:36:15;19.40;99.90
15107;DHT22;7654;45.308;-75.096;2023-06-19T14:38:45;19.50;99.90
15107;DHT22;7654;45.308;-75.096;2023-06-19T14:41:16;19.70;99.90
15107;DHT22;7654;45.308;-75.096;2023-06-19T14:43:47;19.90;99.90
15107;DHT22;7654;45.308;-75.096;2023-06-19T14:46:19;20.20;99.90
15107;DHT22;7654;45.308;-75.096;2023-06-19T14:49:06;20.60;99.90
15107;DHT22;7654;45.308;-75.096;2023-06-19T14:51:37;20.40;99.90
15107;DHT22;7654;45.308;-75.096;2023-06-19T14:54:08;20.60;99.90
15107;DHT22;7654;45.308;-75.096;2023-06-19T14:56:38;20.50;99.90
15107;DHT22;7654;45.308;-75.096;2023-06-19T14:59:09;20.90;99.90
15107;DHT22;7654;45.308;-75.096;2023-06-19T15:01:42;20.80;99.90
15107;DHT22;7654;45.308;-75.096;2023-06-19T15:04:12;20.90;99.90
15107;DHT22;7654;45.308;-75.096;2023-06-19T15:06:42;20.90;99.90
15107;DHT22;7654;45.308;-75.096;2023-06-19T15:09:12;21.00;99.90
15107;DHT22;7654;45.308;-75.096;2023-06-19T15:11:43;20.90;99.90
15107;DHT22;7654;45.308;-75.096;2023-06-19T15:14:13;21.00;99.90
15107;DHT22;7654;45.308;-75.096;2023-06-19T15:16:48;20.70;99.90
15107;DHT22;7654;45.308;-75.096;2023-06-19T15:19:18;20.80;99.90
15107;DHT22;7654;45.308;-75.096;2023-06-19T15:21:49;21.00;99.90
15107;DHT22;7654;45.308;-75.096;2023-06-19T15:24:19;21.60;99.90
15107;DHT22;7654;45.308;-75.096;2023-06-19T15:26:49;21.70;99.90
15107;DHT22;7654;45.308;-75.096;2023-06-19T15:29:20;21.80;99.90
15107;DHT22;7654;45.308;-75.096;2023-06-19T15:31:52;21.80;99.90
15107;DHT22;7654;45.308;-75.096;2023-06-19T15:34:22;21.80;99.90
15107;DHT22;7654;45.308;-75.096;2023-06-19T15:36:52;22.00;99.90
15107;DHT22;7654;45.308;-75.096;2023-06-19T15:39:23;21.80;99.90
15107;DHT22;7654;45.308;-75.096;2023-06-19T15:41:53;21.70;99.90